Time;durP1;ratioP1;P1;durP2;ratioP2;P2;SDS_P1;SDS_P2;PMS_P1;PMS_P2;Temp;Humidity;BMP_temperature;BMP_pressure;BME280_temperature;BME280_humidity;BME280_pressure;Samples;Min_cycle;Max_cycle;Signal;HPM_P1;HPM_P2
2023/09/24 00:01:32;;;;;;;6.28;5.20;;;17.80;99.90;;;;;;5249878;28;20021;-86
2023/09/24 00:04:03;;;;;;;7.43;5.18;;;17.90;99.90;;;;;;5249829;28;20033;-80
2023/09/24 00:06:34;;;;;;;5.95;5.22;;;17.90;99.90;;;;;;5251132;28;20024;-81
2023/09/24 00:09:05;;;;;;;10.57;5.95;;;17.90;99.90;;;;;;5251157;28;20127;-84
2023/09/24 00:11:37;;;;;;;6.72;5.00;;;17.80;99.90;;;;;;5249600;28;20036;-86
2023/09/24 00:14:10;;;;;;;6.72;5.38;;;17.50;99.90;;;;;;5250976;28;20051;-81
2023/09/24 00:16:41;;;;;;;6.78;5.00;;;17.70;99.90;;;;;;5250847;28;20032;-83
2023/09/24 00:19:13;;;;;;;7.60;5.75;;;17.60;99.90;;;;;;5250639;28;20028;-86
2023/09/24 00:21:43;;;;;;;6.90;5.25;;;17.70;99.90;;;;;;5250694;28;20047;-81
2023/09/24 00:24:17;;;;;;;6.00;5.13;;;17.70;99.90;;;;;;5249488;28;20115;-83
2023/09/24 00:26:48;;;;;;;8.80;6.22;;;17.60;99.90;;;;;;5250703;28;20055;-81
2023/09/24 00:29:19;;;;;;;9.27;5.85;;;17.30;99.90;;;;;;5249182;28;20060;-80
2023/09/24 00:31:50;;;;;;;6.75;6.00;;;17.40;99.90;;;;;;5250659;28;20036;-87
2023/09/24 00:34:21;;;;;;;7.75;5.90;;;17.40;99.90;;;;;;5249249;28;20408;-85
2023/09/24 00:36:53;;;;;;;11.02;6.22;;;17.50;99.90;;;;;;5248956;28;20472;-82
2023/09/24 00:39:24;;;;;;;8.73;5.80;;;17.60;99.90;;;;;;5250139;28;20056;-82
2023/09/24 00:41:55;;;;;;;7.32;5.30;;;17.70;99.90;;;;;;5249110;28;20029;-84
2023/09/24 00:44:26;;;;;;;6.90;5.13;;;17.50;99.90;;;;;;5250035;28;20392;-82
2023/09/24 00:46:58;;;;;;;10.55;6.22;;;17.30;99.90;;;;;;5249012;28;20373;-86
2023/09/24 00:49:29;;;;;;;6.80;5.85;;;17.30;99.90;;;;;;5250134;28;20020;-84
2023/09/24 00:52:00;;;;;;;9.15;5.63;;;17.40;99.90;;;;;;5249929;28;20060;-80
2023/09/24 00:54:31;;;;;;;10.48;6.25;;;17.50;99.90;;;;;;5248863;28;20027;-81
2023/09/24 00:57:02;;;;;;;17.90;6.07;;;17.50;99.90;;;;;;5250315;28;20081;-86
2023/09/24 00:59:34;;;;;;;6.47;5.82;;;17.50;99.90;;;;;;5249676;28;20033;-85
2023/09/24 01:02:07;;;;;;;8.85;5.75;;;17.30;99.90;;;;;;5248725;28;20033;-86
2023/09/24 01:04:38;;;;;;;8.95;6.00;;;17.50;99.90;;;;;;5248611;28;20476;-87
2023/09/24 01:07:09;;;;;;;10.05;5.57;;;17.50;99.90;;;;;;5249760;28;20025;-81
2023/09/24 01:09:42;;;;;;;8.00;5.63;;;17.30;99.90;;;;;;5249477;28;20035;-85
2023/09/24 01:12:23;;;;;;;7.28;5.35;;;17.40;99.90;;;;;;5249536;28;20024;-80
2023/09/24 01:14:54;;;;;;;7.18;6.15;;;17.30;99.90;;;;;;5249853;28;20388;-79
2023/09/24 01:17:26;;;;;;;7.45;5.65;;;17.20;99.90;;;;;;5248305;28;20476;-86
2023/09/24 01:19:57;;;;;;;10.60;5.60;;;17.10;99.90;;;;;;5249407;28;20028;-87
2023/09/24 01:22:30;;;;;;;7.45;5.78;;;17.10;99.90;;;;;;5249452;28;20029;-81
2023/09/24 01:25:02;;;;;;;6.88;5.45;;;17.20;99.90;;;;;;5249573;28;20032;-84
2023/09/24 01:27:35;;;;;;;7.95;5.97;;;17.00;99.90;;;;;;5248126;28;20534;-83
2023/09/24 01:30:07;;;;;;;8.23;5.65;;;17.10;99.90;;;;;;5247959;28;20120;-87
2023/09/24 01:32:38;;;;;;;8.43;5.90;;;17.10;99.90;;;;;;5249174;28;20495;-86
2023/09/24 01:35:09;;;;;;;7.03;5.38;;;17.20;99.90;;;;;;5249312;28;20028;-81
2023/09/24 01:37:40;;;;;;;11.85;5.60;;;17.20;99.90;;;;;;5247839;28;20016;-85
2023/09/24 01:40:19;;;;;;;9.25;5.30;;;17.10;99.90;;;;;;5249110;28;20063;-80
2023/09/24 01:42:52;;;;;;;8.88;5.43;;;17.00;99.90;;;;;;5249786;28;20022;-86
2023/09/24 01:45:23;;;;;;;8.13;5.43;;;17.10;99.90;;;;;;5249172;28;20426;-83
2023/09/24 01:47:55;;;;;;;8.43;5.53;;;17.10;99.90;;;;;;5249120;28;20378;-80
2023/09/24 01:50:29;;;;;;;6.68;5.35;;;17.30;99.90;;;;;;5247712;28;20075;-86
2023/09/24 01:53:00;;;;;;;9.02;5.20;;;17.10;99.90;;;;;;5247848;28;20022;-84
2023/09/24 01:55:31;;;;;;;6.00;5.40;;;17.10;99.90;;;;;;5247776;28;20451;-80
2023/09/24 01:58:02;;;;;;;10.23;5.93;;;17.00;99.90;;;;;;5248769;28;20709;-85
2023/09/24 02:00:33;;;;;;;8.00;5.00;;;16.90;99.90;;;;;;5248553;28;20387;-80
2023/09/24 02:03:10;;;;;;;6.88;5.53;;;16.80;99.90;;;;;;5248844;28;20095;-81
2023/09/24 02:05:42;;;;;;;6.40;5.72;;;16.90;99.90;;;;;;5249379;28;20027;-80
2023/09/24 02:08:14;;;;;;;7.45;5.80;;;16.80;99.90;;;;;;5249167;28;20107;-81
2023/09/24 02:10:45;;;;;;;9.45;5.65;;;16.80;99.90;;;;;;5248658;28;20063;-86
2023/09/24 02:13:17;;;;;;;7.45;5.70;;;16.90;99.90;;;;;;5248647;28;20112;-81
2023/09/24 02:15:48;;;;;;;8.48;5.63;;;16.80;99.90;;;;;;5248681;28;20103;-85
2023/09/24 02:18:19;;;;;;;7.43;5.07;;;16.90;99.90;;;;;;5248655;28;20103;-83
2023/09/24 02:20:52;;;;;;;7.05;5.70;;;17.00;99.90;;;;;;5248615;28;20070;-85
2023/09/24 02:23:23;;;;;;;9.05;6.22;;;17.00;99.90;;;;;;5248876;28;20399;-81
2023/09/24 02:25:55;;;;;;;8.25;5.85;;;17.00;99.90;;;;;;5248631;28;20028;-84
2023/09/24 02:28:26;;;;;;;7.72;5.35;;;16.80;99.90;;;;;;5248436;28;20426;-86
2023/09/24 02:30:57;;;;;;;8.38;5.57;;;16.90;99.90;;;;;;5248359;28;20127;-86
2023/09/24 02:33:28;;;;;;;6.80;6.05;;;16.80;99.90;;;;;;5248712;28;20031;-82
2023/09/24 02:35:59;;;;;;;8.45;5.88;;;16.70;99.90;;;;;;5248616;28;20104;-83
2023/09/24 02:38:29;;;;;;;6.55;5.88;;;16.70;99.90;;;;;;5248382;28;20372;-83
2023/09/24 02:41:00;;;;;;;7.43;5.95;;;17.00;99.90;;;;;;5247923;28;20110;-80
2023/09/24 02:43:32;;;;;;;10.27;6.22;;;16.80;99.90;;;;;;5248331;28;20025;-81
2023/09/24 02:46:05;;;;;;;7.10;6.45;;;16.80;99.90;;;;;;5248215;28;20067;-82
2023/09/24 02:48:36;;;;;;;7.90;6.55;;;16.70;99.90;;;;;;5248378;28;20357;-81
2023/09/24 02:51:10;;;;;;;9.68;6.30;;;16.40;99.90;;;;;;5247984;28;20037;-80
2023/09/24 02:53:42;;;;;;;7.45;6.75;;;16.60;99.90;;;;;;5248075;28;20112;-86
2023/09/24 02:56:15;;;;;;;8.25;6.05;;;16.70;99.90;;;;;;5246624;28;20353;-81
2023/09/24 02:58:46;;;;;;;7.85;6.38;;;16.60;99.90;;;;;;5247859;28;20055;-85
2023/09/24 03:01:20;;;;;;;10.32;5.93;;;16.80;99.90;;;;;;5248742;28;20133;-85
2023/09/24 03:03:50;;;;;;;7.20;5.93;;;16.80;99.90;;;;;;5248136;28;20021;-81
2023/09/24 03:06:21;;;;;;;8.27;6.28;;;16.70;99.90;;;;;;5246982;28;20392;-83
2023/09/24 03:08:53;;;;;;;7.47;5.90;;;16.60;99.90;;;;;;5247955;28;20099;-85
2023/09/24 03:11:24;;;;;;;13.23;5.72;;;16.60;99.90;;;;;;5248018;28;20175;-81
2023/09/24 03:13:55;;;;;;;10.35;6.45;;;16.50;99.90;;;;;;5251892;28;20096;-82
2023/09/24 03:16:28;;;;;;;22.65;6.80;;;16.40;99.90;;;;;;5251966;28;20041;-80
2023/09/24 03:19:00;;;;;;;17.52;5.88;;;16.60;99.90;;;;;;5251961;28;20103;-84
2023/09/24 03:21:31;;;;;;;9.38;6.90;;;16.40;99.90;;;;;;5252132;28;20029;-79
2023/09/24 03:24:03;;;;;;;12.45;6.10;;;16.50;99.90;;;;;;5251859;28;20095;-82
2023/09/24 03:26:34;;;;;;;10.18;5.82;;;16.40;99.90;;;;;;5251811;28;20073;-83
2023/09/24 03:29:04;;;;;;;9.38;6.65;;;16.40;99.90;;;;;;5251940;28;20020;-81
2023/09/24 03:31:35;;;;;;;8.52;6.03;;;16.00;99.90;;;;;;5251317;28;20555;-84
2023/09/24 03:34:06;;;;;;;7.15;5.50;;;16.20;99.90;;;;;;5250406;28;20025;-83
2023/09/24 03:36:37;;;;;;;8.18;6.82;;;16.50;99.90;;;;;;5252168;28;20125;-81
2023/09/24 03:39:09;;;;;;;9.45;5.90;;;16.50;99.90;;;;;;5251056;28;20036;-80
2023/09/24 03:41:40;;;;;;;8.77;5.78;;;16.60;99.90;;;;;;5251727;28;20113;-86
2023/09/24 03:44:11;;;;;;;7.10;6.05;;;16.60;99.90;;;;;;5251778;28;20482;-85
2023/09/24 03:46:42;;;;;;;6.65;6.05;;;16.50;99.90;;;;;;5250688;28;20029;-80
2023/09/24 03:49:13;;;;;;;10.63;6.10;;;16.20;99.90;;;;;;5250064;28;20020;-85
2023/09/24 03:51:43;;;;;;;9.05;5.78;;;16.20;99.90;;;;;;5251235;28;20047;-82
2023/09/24 03:54:14;;;;;;;6.45;5.70;;;16.10;99.90;;;;;;5250006;28;20025;-83
2023/09/24 03:56:45;;;;;;;6.25;5.63;;;16.30;99.90;;;;;;5251146;28;20035;-84
2023/09/24 03:59:16;;;;;;;9.50;6.03;;;16.20;99.90;;;;;;5249829;28;20028;-83
2023/09/24 04:01:47;;;;;;;10.32;5.72;;;16.20;99.90;;;;;;5250837;28;20042;-85
2023/09/24 04:04:19;;;;;;;8.88;5.57;;;16.20;99.90;;;;;;5249437;28;20024;-85
2023/09/24 04:06:50;;;;;;;8.70;6.18;;;16.30;99.90;;;;;;5249948;28;20025;-80
2023/09/24 04:09:20;;;;;;;6.88;5.70;;;16.40;99.90;;;;;;5249643;28;20086;-85
2023/09/24 04:11:51;;;;;;;7.00;5.45;;;16.40;99.90;;;;;;5251085;28;20480;-85
2023/09/24 04:14:22;;;;;;;5.97;4.95;;;16.30;99.90;;;;;;5250058;28;20052;-85
2023/09/24 04:16:55;;;;;;;9.48;6.05;;;16.40;99.90;;;;;;5251423;28;20507;-81
2023/09/24 04:19:26;;;;;;;8.73;5.60;;;16.40;99.90;;;;;;5251309;28;20013;-85
2023/09/24 04:21:57;;;;;;;11.27;5.88;;;16.40;99.90;;;;;;5250952;28;20431;-85
2023/09/24 04:24:28;;;;;;;7.30;5.47;;;16.50;99.90;;;;;;5248831;28;20024;-80
2023/09/24 04:27:00;;;;;;;6.65;5.47;;;16.40;99.90;;;;;;5250840;28;20035;-83
2023/09/24 04:29:30;;;;;;;7.13;5.47;;;16.40;99.90;;;;;;5249038;28;20502;-85
2023/09/24 04:32:01;;;;;;;5.95;5.35;;;16.50;99.90;;;;;;5249300;28;20032;-80
2023/09/24 04:34:32;;;;;;;8.30;5.30;;;16.50;99.90;;;;;;5250551;28;20055;-80
2023/09/24 04:37:03;;;;;;;6.10;5.30;;;16.40;99.90;;;;;;5249283;28;20025;-84
2023/09/24 04:39:34;;;;;;;7.57;5.78;;;16.40;99.90;;;;;;5250275;28;20059;-79
2023/09/24 04:42:07;;;;;;;7.55;5.25;;;16.50;99.90;;;;;;5250610;28;20025;-85
2023/09/24 04:44:38;;;;;;;5.90;5.30;;;16.40;99.90;;;;;;5250697;28;20384;-80
2023/09/24 04:47:09;;;;;;;8.20;5.45;;;16.60;99.90;;;;;;5250346;28;20411;-82
2023/09/24 04:49:40;;;;;;;8.13;5.32;;;16.60;99.90;;;;;;5250538;28;20062;-81
2023/09/24 04:52:10;;;;;;;8.60;5.57;;;16.80;99.90;;;;;;5250035;28;20073;-82
2023/09/24 04:54:41;;;;;;;8.57;5.15;;;16.70;99.90;;;;;;5250132;28;20025;-85
2023/09/24 04:57:12;;;;;;;6.57;5.32;;;17.00;99.90;;;;;;5250734;28;20013;-83
2023/09/24 04:59:43;;;;;;;5.47;4.97;;;17.00;99.90;;;;;;5240050;28;20357;-79
2023/09/24 05:02:20;;;;;;;7.03;5.85;;;17.00;99.90;;;;;;5228699;28;20108;-87
2023/09/24 05:04:51;;;;;;;6.38;5.40;;;17.10;99.90;;;;;;5256361;28;20028;-87
2023/09/24 05:07:22;;;;;;;7.20;5.25;;;17.10;99.90;;;;;;5252761;28;20077;-86
2023/09/24 05:09:52;;;;;;;6.22;5.30;;;17.20;99.90;;;;;;5270264;28;20040;-78
2023/09/24 05:12:31;;;;;;;9.18;5.50;;;17.30;99.90;;;;;;5255194;28;20050;-87
2023/09/24 05:15:04;;;;;;;9.40;5.30;;;17.40;99.90;;;;;;5249092;28;20380;-85
2023/09/24 05:17:40;;;;;;;5.43;4.93;;;17.60;99.90;;;;;;5263672;28;20031;-85
2023/09/24 05:20:11;;;;;;;6.72;5.68;;;17.60;99.90;;;;;;5265247;28;20486;-79
2023/09/24 05:22:42;;;;;;;7.03;4.88;;;17.60;99.90;;;;;;5268200;28;20055;-86
2023/09/24 05:25:13;;;;;;;7.63;5.15;;;17.80;99.90;;;;;;5250258;28;20490;-79
2023/09/24 05:27:44;;;;;;;7.97;6.03;;;17.80;99.90;;;;;;5267820;28;20028;-83
2023/09/24 05:30:15;;;;;;;8.70;5.68;;;17.90;99.90;;;;;;5264989;28;20031;-79
2023/09/24 05:32:47;;;;;;;9.00;5.82;;;17.90;99.90;;;;;;5260362;28;20024;-79
2023/09/24 05:35:18;;;;;;;6.50;5.22;;;17.80;99.90;;;;;;5253741;28;20024;-79
2023/09/24 05:37:50;;;;;;;5.88;5.28;;;17.90;99.90;;;;;;5237790;28;20379;-88
2023/09/24 05:40:22;;;;;;;7.57;5.78;;;18.10;99.90;;;;;;5248736;28;20045;-87
2023/09/24 05:42:54;;;;;;;6.43;5.45;;;18.30;99.90;;;;;;5247672;28;20025;-88
2023/09/24 05:45:29;;;;;;;10.70;5.20;;;18.40;99.90;;;;;;5258356;28;20153;-87
2023/09/24 05:48:04;;;;;;;7.28;5.82;;;18.70;99.90;;;;;;5248766;28;20028;-79
2023/09/24 05:50:35;;;;;;;12.35;7.13;;;18.90;99.90;;;;;;5250515;28;20028;-79
2023/09/24 05:53:07;;;;;;;22.13;6.57;;;18.80;99.90;;;;;;5268704;28;20085;-79
2023/09/24 05:55:39;;;;;;;12.05;6.55;;;18.90;99.90;;;;;;5248361;28;20022;-79
2023/09/24 05:58:11;;;;;;;9.90;6.15;;;19.00;99.90;;;;;;5239338;28;20028;-79
2023/09/24 06:00:44;;;;;;;15.52;6.50;;;19.30;99.90;;;;;;5240978;28;20025;-79
2023/09/24 06:03:14;;;;;;;12.10;6.30;;;19.60;99.90;;;;;;5239689;28;20021;-78
2023/09/24 06:05:46;;;;;;;9.98;6.50;;;19.70;99.90;;;;;;5236989;28;20020;-80
2023/09/24 06:08:17;;;;;;;9.98;7.38;;;19.90;99.90;;;;;;5248428;28;20468;-81
2023/09/24 06:10:48;;;;;;;8.45;7.45;;;20.10;99.90;;;;;;5248402;28;20115;-80
2023/09/24 06:13:20;;;;;;;32.35;9.07;;;20.30;99.90;;;;;;5248432;28;20067;-80
2023/09/24 06:15:59;;;;;;;25.50;8.55;;;20.50;99.90;;;;;;5248339;28;20028;-80
2023/09/24 06:18:30;;;;;;;13.27;6.32;;;20.70;99.90;;;;;;5257167;28;20031;-80
2023/09/24 06:21:05;;;;;;;11.68;7.30;;;20.90;99.90;;;;;;5254419;28;20273;-79
2023/09/24 06:23:37;;;;;;;16.38;7.65;;;21.00;99.90;;;;;;5248322;28;20437;-79
2023/09/24 06:26:08;;;;;;;14.52;7.47;;;21.20;99.90;;;;;;5248226;28;20023;-79
2023/09/24 06:28:39;;;;;;;12.88;8.55;;;21.30;99.90;;;;;;5248266;28;20365;-84
2023/09/24 06:31:11;;;;;;;16.00;9.77;;;21.50;99.90;;;;;;5263295;28;20088;-82
2023/09/24 06:33:42;;;;;;;18.15;11.82;;;21.80;99.90;;;;;;5268720;28;20029;-78
2023/09/24 06:36:12;;;;;;;18.77;12.45;;;22.00;99.90;;;;;;5268421;28;20390;-78
2023/09/24 06:38:44;;;;;;;21.42;11.65;;;22.20;99.90;;;;;;5267552;28;20035;-78
2023/09/24 06:41:15;;;;;;;14.52;12.48;;;22.40;99.90;;;;;;5265131;28;20055;-82
2023/09/24 06:43:45;;;;;;;14.60;10.80;;;22.70;99.90;;;;;;5268713;28;20028;-78
2023/09/24 06:46:16;;;;;;;12.38;11.10;;;22.80;99.90;;;;;;5270339;28;20020;-78
2023/09/24 06:48:47;;;;;;;14.05;11.45;;;23.00;99.90;;;;;;5273763;28;20374;-81
2023/09/24 06:51:20;;;;;;;13.02;11.77;;;23.00;99.90;;;;;;5273533;28;20028;-80
2023/09/24 07:06:34;;;;;;;15.95;14.35;;;23.30;99.90;;;;;;5286427;27;20387;-74
2023/09/24 07:09:05;;;;;;;15.45;14.02;;;23.90;99.90;;;;;;5265885;28;20012;-74
2023/09/24 07:11:38;;;;;;;14.98;13.63;;;24.10;99.90;;;;;;5265786;28;20064;-74
2023/09/24 07:14:09;;;;;;;16.77;15.27;;;24.20;99.90;;;;;;5262343;28;20492;-73
2023/09/24 07:16:40;;;;;;;17.25;15.45;;;24.30;99.90;;;;;;5262449;28;20063;-76
2023/09/24 07:19:11;;;;;;;20.02;17.95;;;24.40;99.90;;;;;;5265170;28;20476;-75
2023/09/24 07:21:42;;;;;;;20.52;18.42;;;24.40;99.90;;;;;;5265392;28;20487;-76
2023/09/24 07:24:14;;;;;;;22.90;21.05;;;24.60;99.90;;;;;;5265479;28;20028;-77
2023/09/24 07:26:44;;;;;;;23.05;20.98;;;24.70;99.90;;;;;;5247748;28;20027;-77
2023/09/24 07:29:15;;;;;;;22.95;20.95;;;24.80;99.90;;;;;;5243504;28;20029;-75
2023/09/24 07:31:46;;;;;;;25.33;23.02;;;25.00;99.90;;;;;;5242890;28;20086;-77
2023/09/24 07:34:17;;;;;;;25.17;22.77;;;25.10;99.90;;;;;;5244231;28;20068;-77
2023/09/24 07:36:48;;;;;;;25.73;23.23;;;25.10;99.90;;;;;;5243729;28;20031;-77
2023/09/24 07:39:19;;;;;;;21.65;19.65;;;25.20;99.90;;;;;;5243113;28;20025;-75
2023/09/24 07:41:51;;;;;;;20.75;19.00;;;25.40;99.90;;;;;;5244267;28;20495;-76
2023/09/24 07:44:22;;;;;;;17.25;15.95;;;25.50;99.90;;;;;;5243587;28;20029;-76
2023/09/24 07:46:54;;;;;;;13.77;12.45;;;25.60;99.90;;;;;;5242937;28;20035;-77
2023/09/24 07:49:25;;;;;;;14.40;13.15;;;25.60;99.90;;;;;;5243767;28;20024;-78
2023/09/24 07:51:56;;;;;;;13.15;11.55;;;25.70;99.90;;;;;;5244358;28;20047;-78
2023/09/24 07:54:28;;;;;;;11.43;9.82;;;25.90;99.90;;;;;;5244115;28;20098;-78
2023/09/24 07:56:59;;;;;;;11.15;9.77;;;26.10;99.90;;;;;;5243598;28;20382;-77
2023/09/24 07:59:30;;;;;;;11.52;8.02;;;26.10;99.90;;;;;;5237663;28;20041;-76
2023/09/24 08:02:02;;;;;;;10.90;8.93;;;26.20;99.90;;;;;;5243173;28;20032;-76
2023/09/24 08:04:33;;;;;;;10.75;9.60;;;26.30;99.90;;;;;;5242953;28;20068;-76
2023/09/24 08:07:03;;;;;;;12.73;11.38;;;26.20;99.90;;;;;;5231793;28;20105;-76
2023/09/24 08:09:36;;;;;;;11.32;10.23;;;26.30;99.90;;;;;;5209248;28;20404;-77
2023/09/24 08:12:07;;;;;;;11.30;10.27;;;26.40;99.90;;;;;;5228248;28;20055;-76
2023/09/24 08:14:38;;;;;;;14.35;12.35;;;26.30;99.90;;;;;;5228296;28;20154;-76
2023/09/24 08:17:08;;;;;;;22.77;14.55;;;26.60;99.90;;;;;;5228445;28;20025;-76
2023/09/24 08:19:39;;;;;;;36.38;11.23;;;26.70;99.90;;;;;;5228386;28;20049;-77
2023/09/24 08:22:10;;;;;;;11.82;10.40;;;26.70;99.90;;;;;;5232192;28;20363;-75
2023/09/24 08:24:42;;;;;;;11.88;9.82;;;26.80;99.90;;;;;;5233665;28;20468;-77
2023/09/24 08:27:12;;;;;;;10.30;9.20;;;26.90;99.90;;;;;;5228768;28;20029;-77
2023/09/24 08:29:43;;;;;;;13.63;11.50;;;27.00;99.90;;;;;;5228148;28;20036;-75
2023/09/24 08:32:15;;;;;;;10.27;9.40;;;27.10;99.90;;;;;;5228559;28;20095;-77
2023/09/24 08:34:46;;;;;;;13.90;11.57;;;27.40;99.90;;;;;;5228757;28;20150;-77
2023/09/24 08:37:17;;;;;;;12.27;11.18;;;27.40;99.90;;;;;;5228945;28;20124;-76
2023/09/24 08:39:47;;;;;;;12.52;10.68;;;27.50;99.90;;;;;;5228315;28;20029;-77
2023/09/24 08:42:19;;;;;;;10.60;8.07;;;27.40;99.90;;;;;;5228790;28;20107;-77
2023/09/24 08:45:01;;;;;;;9.60;8.65;;;27.60;99.90;;;;;;5228692;28;20040;-76
2023/09/24 08:47:34;;;;;;;12.27;7.55;;;27.70;99.90;;;;;;5228766;28;20028;-77
2023/09/24 08:50:09;;;;;;;6.97;6.22;;;27.80;99.90;;;;;;5228569;28;20021;-76
2023/09/24 08:52:42;;;;;;;11.13;7.90;;;27.50;99.90;;;;;;5227930;28;20033;-76
2023/09/24 08:55:14;;;;;;;8.88;7.38;;;27.80;99.90;;;;;;5228330;28;20036;-77
2023/09/24 08:57:46;;;;;;;9.23;8.32;;;28.10;99.90;;;;;;5228321;28;20164;-76
2023/09/24 09:00:16;;;;;;;10.55;8.90;;;28.00;99.90;;;;;;5227933;28;20025;-77
2023/09/24 09:02:47;;;;;;;12.68;8.52;;;28.20;99.90;;;;;;5228490;28;20036;-77
2023/09/24 09:05:25;;;;;;;9.27;8.43;;;28.20;99.90;;;;;;5227590;28;20399;-77
2023/09/24 09:08:01;;;;;;;13.20;9.57;;;28.30;99.90;;;;;;5227771;28;20029;-77
2023/09/24 09:10:34;;;;;;;9.40;8.43;;;27.90;99.90;;;;;;5227918;28;20028;-77
2023/09/24 09:13:08;;;;;;;8.98;7.45;;;28.40;99.90;;;;;;5228009;28;20021;-77
2023/09/24 09:15:41;;;;;;;7.55;6.28;;;28.50;99.90;;;;;;5227794;28;20040;-77
2023/09/24 09:18:25;;;;;;;7.32;6.45;;;28.60;99.90;;;;;;5226736;28;20074;-76
2023/09/24 09:20:59;;;;;;;7.15;5.47;;;28.70;99.90;;;;;;5227119;28;20045;-77
2023/09/24 09:23:35;;;;;;;7.55;6.05;;;28.80;99.90;;;;;;5227676;28;20487;-77
2023/09/24 09:26:06;;;;;;;6.13;5.38;;;28.80;99.90;;;;;;5227625;28;20021;-77
2023/09/24 09:28:37;;;;;;;7.75;5.63;;;28.90;99.90;;;;;;5227890;28;20052;-77
2023/09/24 09:31:09;;;;;;;6.25;5.68;;;29.00;99.90;;;;;;5227708;28;20051;-77
2023/09/24 09:33:42;;;;;;;9.38;6.22;;;28.80;99.90;;;;;;5227421;28;20047;-77
2023/09/24 09:36:27;;;;;;;9.63;5.97;;;29.20;99.90;;;;;;5227854;28;20036;-77
2023/09/24 09:38:58;;;;;;;7.25;5.78;;;29.20;99.90;;;;;;5227640;28;20017;-77
2023/09/24 09:41:33;;;;;;;8.23;5.75;;;29.10;99.90;;;;;;5227609;28;20095;-76
2023/09/24 09:56:50;;;;;;;10.52;4.30;;;28.70;99.90;;;;;;5307605;27;20409;-74
2023/09/24 09:59:22;;;;;;;8.32;5.35;;;29.60;99.90;;;;;;5307300;28;20027;-74
2023/09/24 10:01:53;;;;;;;6.63;5.88;;;29.60;99.90;;;;;;5306699;28;20023;-74
2023/09/24 10:04:25;;;;;;;7.85;6.00;;;29.70;99.90;;;;;;5306634;28;20028;-74
2023/09/24 10:06:56;;;;;;;11.52;6.40;;;29.80;99.90;;;;;;5306360;27;20038;-74
2023/09/24 10:09:27;;;;;;;9.18;6.53;;;29.80;99.90;;;;;;5307094;28;20051;-74
2023/09/24 10:11:58;;;;;;;11.68;6.40;;;29.90;99.90;;;;;;5290806;28;20105;-74
2023/09/24 10:14:42;;;;;;;7.93;5.82;;;30.10;99.90;;;;;;5285810;28;20073;-74
2023/09/24 10:17:16;;;;;;;8.27;5.82;;;30.00;99.90;;;;;;5285430;28;20020;-74
2023/09/24 10:20:09;;;;;;;9.30;5.72;;;30.00;99.90;;;;;;5285290;28;20020;-74
2023/09/24 10:22:42;;;;;;;8.52;4.65;;;30.00;99.90;;;;;;5285480;28;20027;-74
2023/09/24 10:25:34;;;;;;;8.32;5.18;;;30.20;99.90;;;;;;5285276;28;20040;-75
2023/09/24 10:28:07;;;;;;;7.07;5.55;;;30.10;99.90;;;;;;5285484;28;20422;-74
2023/09/24 10:31:07;;;;;;;5.45;4.63;;;30.20;99.90;;;;;;5285495;28;20340;-74
2023/09/24 10:33:57;;;;;;;6.40;4.45;;;30.20;99.90;;;;;;5285607;28;20027;-75
2023/09/24 10:36:30;;;;;;;7.40;4.22;;;30.40;99.90;;;;;;5285562;28;20032;-75
2023/09/24 10:39:09;;;;;;;8.05;4.85;;;30.30;99.90;;;;;;5285501;28;20020;-74
2023/09/24 10:42:12;;;;;;;11.10;4.97;;;30.30;99.90;;;;;;5285438;28;20035;-74
2023/09/24 10:44:44;;;;;;;8.15;5.38;;;30.40;99.90;;;;;;5264227;28;20093;-74
2023/09/24 10:47:25;;;;;;;10.10;4.97;;;30.20;99.90;;;;;;5264025;28;20044;-74
2023/09/24 10:50:19;;;;;;;5.88;4.80;;;30.40;99.90;;;;;;5264227;28;20026;-75
2023/09/24 10:53:02;;;;;;;5.28;4.78;;;30.10;99.90;;;;;;5264383;28;20020;-73
2023/09/24 10:55:39;;;;;;;6.18;4.90;;;30.10;99.90;;;;;;5262837;28;20056;-75
2023/09/24 10:58:12;;;;;;;7.72;5.38;;;30.20;99.90;;;;;;5249242;28;20421;-75
2023/09/24 11:00:51;;;;;;;4.13;3.80;;;30.40;99.90;;;;;;5249900;28;20032;-74
2023/09/24 11:03:22;;;;;;;7.20;4.43;;;30.60;99.90;;;;;;5266537;28;20024;-74
2023/09/24 11:05:54;;;;;;;9.02;4.70;;;30.40;99.90;;;;;;5270309;28;20487;-74
2023/09/24 11:08:29;;;;;;;4.95;4.30;;;30.40;99.90;;;;;;5270628;28;20531;-73
2023/09/24 11:11:00;;;;;;;4.97;4.13;;;30.30;99.90;;;;;;5270619;28;20024;-74
2023/09/24 11:13:31;;;;;;;7.00;4.53;;;30.50;99.90;;;;;;5270797;28;20024;-74
2023/09/24 11:16:03;;;;;;;8.65;4.55;;;30.40;99.90;;;;;;5270500;28;20024;-74
2023/09/24 11:18:34;;;;;;;6.05;4.03;;;30.50;99.90;;;;;;5270501;28;20023;-74
2023/09/24 11:21:05;;;;;;;6.32;4.68;;;30.60;99.90;;;;;;5270644;28;20028;-75
2023/09/24 11:23:37;;;;;;;6.45;5.50;;;30.60;99.90;;;;;;5270141;28;20024;-74
2023/09/24 11:26:08;;;;;;;8.82;5.10;;;30.60;99.90;;;;;;5268574;28;20043;-74
2023/09/24 11:28:39;;;;;;;5.88;5.07;;;30.60;99.90;;;;;;5269787;28;20077;-74
2023/09/24 11:31:10;;;;;;;5.65;4.57;;;30.50;99.90;;;;;;5269637;28;20099;-74
2023/09/24 11:33:41;;;;;;;6.72;5.43;;;30.60;99.90;;;;;;5269920;28;20130;-74
2023/09/24 11:36:16;;;;;;;5.93;4.95;;;30.40;99.90;;;;;;5270185;28;20059;-75
2023/09/24 11:38:49;;;;;;;8.48;5.60;;;30.60;99.90;;;;;;5270075;28;20020;-74
2023/09/24 11:41:20;;;;;;;8.50;5.20;;;30.50;99.90;;;;;;5268446;28;20493;-75
2023/09/24 11:43:57;;;;;;;6.88;4.82;;;30.40;99.90;;;;;;5269188;28;20024;-74
2023/09/24 11:46:28;;;;;;;8.70;5.38;;;30.40;99.90;;;;;;5269462;28;20040;-74
2023/09/24 11:48:59;;;;;;;5.70;5.15;;;30.50;99.90;;;;;;5269631;28;20028;-74
2023/09/24 11:51:30;;;;;;;5.95;5.13;;;30.40;99.90;;;;;;5269501;28;20024;-74
2023/09/24 11:54:02;;;;;;;7.78;6.35;;;30.40;99.90;;;;;;5268119;28;20039;-74
2023/09/24 11:56:33;;;;;;;5.90;5.03;;;30.40;99.90;;;;;;5269213;28;20084;-74
2023/09/24 11:59:04;;;;;;;10.27;6.00;;;30.40;99.90;;;;;;5269119;28;20052;-73
2023/09/24 12:01:35;;;;;;;6.88;5.97;;;30.30;99.90;;;;;;5268045;28;20020;-74
2023/09/24 12:04:06;;;;;;;6.78;5.63;;;30.50;99.90;;;;;;5269289;28;20165;-73
2023/09/24 12:06:38;;;;;;;6.35;5.75;;;30.30;99.90;;;;;;5269995;28;20035;-75
2023/09/24 12:09:08;;;;;;;8.88;6.20;;;30.40;99.90;;;;;;5267697;28;20080;-74
2023/09/24 12:11:39;;;;;;;16.38;12.90;;;30.50;99.90;;;;;;5269400;28;20024;-75
2023/09/24 12:14:10;;;;;;;8.00;5.30;;;30.60;99.90;;;;;;5268975;28;20032;-75
2023/09/24 12:16:41;;;;;;;9.35;6.75;;;30.50;99.90;;;;;;5267685;28;20032;-74
2023/09/24 12:19:12;;;;;;;5.28;4.78;;;30.60;99.90;;;;;;5269384;28;20031;-75
2023/09/24 12:21:43;;;;;;;7.97;5.25;;;30.60;99.90;;;;;;5269187;28;20031;-75
2023/09/24 12:24:14;;;;;;;8.50;6.15;;;30.40;99.90;;;;;;5268287;28;20043;-75
2023/09/24 12:26:45;;;;;;;6.63;5.78;;;30.40;99.90;;;;;;5268139;28;20035;-75
2023/09/24 12:29:16;;;;;;;7.18;6.03;;;30.40;99.90;;;;;;5268346;28;20077;-75
2023/09/24 12:31:47;;;;;;;11.77;5.85;;;30.30;99.90;;;;;;5268587;28;20111;-75
2023/09/24 12:34:18;;;;;;;7.45;5.38;;;30.40;99.90;;;;;;5268747;28;20052;-74
2023/09/24 12:36:49;;;;;;;7.95;6.20;;;30.00;99.90;;;;;;5268683;28;20028;-75
2023/09/24 12:39:20;;;;;;;7.07;6.38;;;30.10;99.90;;;;;;5268762;28;20028;-75
2023/09/24 12:41:51;;;;;;;7.03;6.32;;;30.30;99.90;;;;;;5268748;28;20032;-75
2023/09/24 12:44:22;;;;;;;6.97;5.78;;;30.30;99.90;;;;;;5268185;28;20498;-74
2023/09/24 12:46:55;;;;;;;8.35;6.80;;;30.20;99.90;;;;;;5268286;28;20020;-75
2023/09/24 12:49:26;;;;;;;7.15;6.43;;;29.90;99.90;;;;;;5266731;28;20426;-75
2023/09/24 12:51:57;;;;;;;6.88;6.28;;;29.80;99.90;;;;;;5267905;28;20020;-75
2023/09/24 12:54:28;;;;;;;6.50;5.65;;;30.10;99.90;;;;;;5267172;28;20028;-74
2023/09/24 12:56:58;;;;;;;22.08;6.50;;;30.00;99.90;;;;;;5268460;28;20044;-75
2023/09/24 12:59:29;;;;;;;7.20;6.20;;;30.10;99.90;;;;;;5268195;28;20470;-73
2023/09/24 13:02:00;;;;;;;9.93;6.47;;;29.90;99.90;;;;;;5268148;28;20468;-75
2023/09/24 13:04:33;;;;;;;10.27;8.02;;;29.80;99.90;;;;;;5268293;28;20043;-73
2023/09/24 13:07:04;;;;;;;18.05;7.22;;;29.70;99.90;;;;;;5267847;28;20028;-75
2023/09/24 13:09:36;;;;;;;11.20;8.25;;;29.80;99.90;;;;;;5268229;28;20061;-74
2023/09/24 13:12:07;;;;;;;16.33;9.52;;;30.00;99.90;;;;;;5268390;28;20104;-75
2023/09/24 13:14:38;;;;;;;7.80;5.88;;;29.90;99.90;;;;;;5268132;28;20032;-75
2023/09/24 13:17:09;;;;;;;10.20;6.35;;;29.90;99.90;;;;;;5267997;28;20024;-74
2023/09/24 13:19:40;;;;;;;7.00;6.30;;;29.70;99.90;;;;;;5267639;28;20058;-74
2023/09/24 13:22:11;;;;;;;10.18;7.55;;;29.70;99.90;;;;;;5268030;28;20031;-75
2023/09/24 13:24:42;;;;;;;11.13;7.03;;;29.80;99.90;;;;;;5267898;28;20111;-74
2023/09/24 13:27:13;;;;;;;8.70;6.68;;;29.40;99.90;;;;;;5267169;28;20024;-76
2023/09/24 13:29:43;;;;;;;8.07;7.15;;;29.50;99.90;;;;;;5267547;28;20027;-75
2023/09/24 13:32:18;;;;;;;8.57;7.53;;;29.70;99.90;;;;;;5267748;28;20012;-76
2023/09/24 13:34:49;;;;;;;8.90;8.05;;;29.60;99.90;;;;;;5267910;28;20019;-75